sensor_id;sensor_type;location;lat;lon;timestamp;pressure;altitude;pressure_sealevel;temperature;humidity
76853;BME280;65825;52.232;10.566;2023-02-28T00:00:49;102238.81;;;-2.23;82.27
76853;BME280;65825;52.232;10.566;2023-02-28T00:03:14;102240.31;;;-2.28;82.02
76853;BME280;65825;52.232;10.566;2023-02-28T00:05:39;102236.13;;;-2.26;81.41
76853;BME280;65825;52.232;10.566;2023-02-28T00:08:04;102239.94;;;-2.37;82.13
76853;BME280;65825;52.232;10.566;2023-02-28T00:10:31;102232.94;;;-2.39;80.88
76853;BME280;65825;52.232;10.566;2023-02-28T00:13:05;102235.50;;;-2.39;81.86
76853;BME280;65825;52.232;10.566;2023-02-28T00:15:33;102234.44;;;-2.44;81.88
76853;BME280;65825;52.232;10.566;2023-02-28T00:17:59;102238.63;;;-2.46;82.20
76853;BME280;65825;52.232;10.566;2023-02-28T00:20:24;102235.84;;;-2.51;82.84
76853;BME280;65825;52.232;10.566;2023-02-28T00:22:52;102243.53;;;-2.52;82.34
76853;BME280;65825;52.232;10.566;2023-02-28T00:25:20;102234.91;;;-2.53;82.60
76853;BME280;65825;52.232;10.566;2023-02-28T00:27:45;102240.06;;;-2.53;82.53
76853;BME280;65825;52.232;10.566;2023-02-28T00:30:17;102237.53;;;-2.51;82.57
76853;BME280;65825;52.232;10.566;2023-02-28T00:32:43;102235.91;;;-2.49;82.41
76853;BME280;65825;52.232;10.566;2023-02-28T00:35:09;102239.59;;;-2.44;82.29
76853;BME280;65825;52.232;10.566;2023-02-28T00:37:35;102236.31;;;-2.40;82.58
76853;BME280;65825;52.232;10.566;2023-02-28T00:40:00;102233.28;;;-2.32;83.03
76853;BME280;65825;52.232;10.566;2023-02-28T00:42:27;102234.69;;;-2.19;81.55
76853;BME280;65825;52.232;10.566;2023-02-28T00:44:52;102229.97;;;-2.09;80.70
76853;BME280;65825;52.232;10.566;2023-02-28T00:47:17;102233.72;;;-2.02;80.72
76853;BME280;65825;52.232;10.566;2023-02-28T00:49:43;102230.38;;;-2.00;80.96
76853;BME280;65825;52.232;10.566;2023-02-28T00:52:08;102229.69;;;-1.96;79.91
76853;BME280;65825;52.232;10.566;2023-02-28T00:54:33;102228.94;;;-1.93;80.93
76853;BME280;65825;52.232;10.566;2023-02-28T00:56:59;102234.22;;;-1.90;81.32
76853;BME280;65825;52.232;10.566;2023-02-28T00:59:24;102229.28;;;-1.86;81.50
76853;BME280;65825;52.232;10.566;2023-02-28T01:01:50;102225.22;;;-1.79;80.11
76853;BME280;65825;52.232;10.566;2023-02-28T01:04:15;102232.13;;;-1.80;80.71
76853;BME280;65825;52.232;10.566;2023-02-28T01:06:41;102232.31;;;-1.75;80.51
76853;BME280;65825;52.232;10.566;2023-02-28T01:09:07;102237.66;;;-1.71;81.03
76853;BME280;65825;52.232;10.566;2023-02-28T01:11:34;102231.03;;;-1.64;80.59
76853;BME280;65825;52.232;10.566;2023-02-28T01:14:00;102228.78;;;-1.57;80.56
76853;BME280;65825;52.232;10.566;2023-02-28T01:16:26;102223.97;;;-1.48;80.12
76853;BME280;65825;52.232;10.566;2023-02-28T01:18:51;102222.47;;;-1.43;80.26
76853;BME280;65825;52.232;10.566;2023-02-28T01:21:18;102210.59;;;-1.38;79.16
76853;BME280;65825;52.232;10.566;2023-02-28T01:23:44;102218.53;;;-1.33;79.34
76853;BME280;65825;52.232;10.566;2023-02-28T01:26:13;102220.28;;;-1.33;79.27
76853;BME280;65825;52.232;10.566;2023-02-28T01:28:38;102219.59;;;-1.28;79.37
76853;BME280;65825;52.232;10.566;2023-02-28T01:31:04;102220.56;;;-1.26;79.08
76853;BME280;65825;52.232;10.566;2023-02-28T01:33:30;102220.84;;;-1.19;79.27
76853;BME280;65825;52.232;10.566;2023-02-28T01:36:04;102222.03;;;-1.11;79.12
76853;BME280;65825;52.232;10.566;2023-02-28T01:38:29;102214.44;;;-1.07;79.04
76853;BME280;65825;52.232;10.566;2023-02-28T01:40:55;102218.06;;;-1.03;78.46
76853;BME280;65825;52.232;10.566;2023-02-28T01:43:31;102210.28;;;-1.03;78.98
76853;BME280;65825;52.232;10.566;2023-02-28T01:45:58;102201.53;;;-1.05;78.78
76853;BME280;65825;52.232;10.566;2023-02-28T01:48:34;102201.47;;;-1.07;78.26
76853;BME280;65825;52.232;10.566;2023-02-28T01:51:05;102208.25;;;-1.10;78.52
76853;BME280;65825;52.232;10.566;2023-02-28T01:53:37;102200.31;;;-1.14;78.66
76853;BME280;65825;52.232;10.566;2023-02-28T01:56:07;102200.31;;;-1.14;78.67
76853;BME280;65825;52.232;10.566;2023-02-28T01:58:35;102197.34;;;-1.23;79.17
76853;BME280;65825;52.232;10.566;2023-02-28T02:01:01;102202.16;;;-1.33;79.43
76853;BME280;65825;52.232;10.566;2023-02-28T02:03:29;102209.69;;;-1.38;79.90
76853;BME280;65825;52.232;10.566;2023-02-28T02:05:56;102201.50;;;-1.49;79.25
76853;BME280;65825;52.232;10.566;2023-02-28T02:08:23;102202.88;;;-1.57;79.53
76853;BME280;65825;52.232;10.566;2023-02-28T02:10:52;102202.50;;;-1.66;78.84
76853;BME280;65825;52.232;10.566;2023-02-28T02:18:30;102200.84;;;-2.05;80.78
76853;BME280;65825;52.232;10.566;2023-02-28T02:21:16;102209.22;;;-2.10;81.39
76853;BME280;65825;52.232;10.566;2023-02-28T02:24:23;102189.97;;;-2.17;81.94
76853;BME280;65825;52.232;10.566;2023-02-28T02:27:17;102201.94;;;-2.19;82.05
76853;BME280;65825;52.232;10.566;2023-02-28T02:36:04;102196.91;;;-2.35;82.07
76853;BME280;65825;52.232;10.566;2023-02-28T02:38:53;102195.16;;;-2.36;81.90
76853;BME280;65825;52.232;10.566;2023-02-28T02:41:36;102195.22;;;-2.34;82.33
76853;BME280;65825;52.232;10.566;2023-02-28T02:44:13;102200.25;;;-2.18;81.33
76853;BME280;65825;52.232;10.566;2023-02-28T02:46:46;102204.25;;;-2.06;81.90
76853;BME280;65825;52.232;10.566;2023-02-28T02:49:20;102196.50;;;-1.85;81.25
76853;BME280;65825;52.232;10.566;2023-02-28T02:51:47;102198.03;;;-1.70;80.72
76853;BME280;65825;52.232;10.566;2023-02-28T02:54:23;102195.31;;;-1.52;80.07
76853;BME280;65825;52.232;10.566;2023-02-28T02:56:55;102208.75;;;-1.40;79.96
76853;BME280;65825;52.232;10.566;2023-02-28T02:59:22;102213.28;;;-1.35;80.33
76853;BME280;65825;52.232;10.566;2023-02-28T03:01:49;102216.16;;;-1.27;79.77
76853;BME280;65825;52.232;10.566;2023-02-28T03:04:19;102213.25;;;-1.14;79.46
76853;BME280;65825;52.232;10.566;2023-02-28T03:06:45;102215.50;;;-1.02;78.87
76853;BME280;65825;52.232;10.566;2023-02-28T03:09:10;102219.41;;;-0.90;77.80
76853;BME280;65825;52.232;10.566;2023-02-28T03:11:36;102210.38;;;-0.78;77.99
76853;BME280;65825;52.232;10.566;2023-02-28T03:14:19;102207.91;;;-0.75;77.99
76853;BME280;65825;52.232;10.566;2023-02-28T03:22:13;102205.75;;;-0.41;76.15
76853;BME280;65825;52.232;10.566;2023-02-28T03:27:24;102213.91;;;-0.31;75.92
76853;BME280;65825;52.232;10.566;2023-02-28T03:30:03;102216.41;;;-0.33;75.87
76853;BME280;65825;52.232;10.566;2023-02-28T03:32:39;102211.44;;;-0.28;75.84
76853;BME280;65825;52.232;10.566;2023-02-28T03:35:20;102213.91;;;-0.31;75.97
76853;BME280;65825;52.232;10.566;2023-02-28T03:37:48;102219.56;;;-0.41;76.32
76853;BME280;65825;52.232;10.566;2023-02-28T03:40:19;102221.03;;;-0.48;76.62
76853;BME280;65825;52.232;10.566;2023-02-28T03:42:49;102215.66;;;-0.53;75.74
76853;BME280;65825;52.232;10.566;2023-02-28T03:45:19;102208.75;;;-0.52;75.69
76853;BME280;65825;52.232;10.566;2023-02-28T03:50:39;102211.50;;;-0.48;76.08
76853;BME280;65825;52.232;10.566;2023-02-28T03:56:07;102220.06;;;-0.51;75.64
76853;BME280;65825;52.232;10.566;2023-02-28T03:58:43;102214.94;;;-0.49;73.67
76853;BME280;65825;52.232;10.566;2023-02-28T04:01:24;102214.50;;;-0.38;73.26
76853;BME280;65825;52.232;10.566;2023-02-28T04:03:51;102220.81;;;-0.31;72.63
76853;BME280;65825;52.232;10.566;2023-02-28T04:06:19;102210.38;;;-0.32;73.16
76853;BME280;65825;52.232;10.566;2023-02-28T04:08:45;102216.34;;;-0.35;73.36
76853;BME280;65825;52.232;10.566;2023-02-28T04:13:41;102205.56;;;-0.46;73.52
76853;BME280;65825;52.232;10.566;2023-02-28T04:16:07;102205.50;;;-0.47;73.67
76853;BME280;65825;52.232;10.566;2023-02-28T04:18:38;102204.78;;;-0.43;74.06
76853;BME280;65825;52.232;10.566;2023-02-28T04:21:03;102207.44;;;-0.42;74.10
76853;BME280;65825;52.232;10.566;2023-02-28T04:23:30;102209.13;;;-0.42;73.22
76853;BME280;65825;52.232;10.566;2023-02-28T04:25:55;102215.78;;;-0.50;73.99
76853;BME280;65825;52.232;10.566;2023-02-28T04:28:20;102215.50;;;-0.57;74.56
76853;BME280;65825;52.232;10.566;2023-02-28T04:30:46;102218.03;;;-0.59;74.34
76853;BME280;65825;52.232;10.566;2023-02-28T04:33:11;102216.88;;;-0.67;74.50
76853;BME280;65825;52.232;10.566;2023-02-28T04:35:36;102221.84;;;-0.72;74.39
76853;BME280;65825;52.232;10.566;2023-02-28T04:38:01;102214.28;;;-0.67;74.26
76853;BME280;65825;52.232;10.566;2023-02-28T04:40:27;102221.78;;;-0.73;75.23
76853;BME280;65825;52.232;10.566;2023-02-28T04:42:54;102220.88;;;-0.75;75.75
76853;BME280;65825;52.232;10.566;2023-02-28T04:45:19;102220.72;;;-0.78;76.24
76853;BME280;65825;52.232;10.566;2023-02-28T04:47:45;102216.59;;;-0.73;75.78
76853;BME280;65825;52.232;10.566;2023-02-28T04:50:10;102205.16;;;-0.79;76.44
76853;BME280;65825;52.232;10.566;2023-02-28T04:52:35;102216.16;;;-0.85;76.39
76853;BME280;65825;52.232;10.566;2023-02-28T04:55:01;102214.84;;;-0.96;76.85
76853;BME280;65825;52.232;10.566;2023-02-28T04:57:26;102222.56;;;-0.98;76.73
76853;BME280;65825;52.232;10.566;2023-02-28T04:59:52;102221.50;;;-1.02;76.73
76853;BME280;65825;52.232;10.566;2023-02-28T05:02:19;102222.16;;;-1.08;76.26
76853;BME280;65825;52.232;10.566;2023-02-28T05:04:46;102218.81;;;-1.05;76.46
76853;BME280;65825;52.232;10.566;2023-02-28T05:07:11;102219.81;;;-1.02;76.79
76853;BME280;65825;52.232;10.566;2023-02-28T05:09:36;102219.13;;;-0.98;76.31
76853;BME280;65825;52.232;10.566;2023-02-28T05:12:02;102221.81;;;-0.95;76.24
76853;BME280;65825;52.232;10.566;2023-02-28T05:14:28;102217.75;;;-0.88;76.30
76853;BME280;65825;52.232;10.566;2023-02-28T05:16:53;102216.84;;;-0.89;75.92
76853;BME280;65825;52.232;10.566;2023-02-28T05:19:18;102215.84;;;-0.93;75.88
76853;BME280;65825;52.232;10.566;2023-02-28T05:21:54;102219.50;;;-0.88;75.81
76853;BME280;65825;52.232;10.566;2023-02-28T05:24:20;102209.97;;;-0.88;75.26
76853;BME280;65825;52.232;10.566;2023-02-28T05:26:48;102214.25;;;-0.89;75.85
76853;BME280;65825;52.232;10.566;2023-02-28T05:29:13;102222.09;;;-0.88;76.48
76853;BME280;65825;52.232;10.566;2023-02-28T05:31:39;102219.66;;;-0.83;76.23
76853;BME280;65825;52.232;10.566;2023-02-28T05:34:04;102225.81;;;-0.81;76.57
76853;BME280;65825;52.232;10.566;2023-02-28T05:36:30;102221.50;;;-0.81;76.80
76853;BME280;65825;52.232;10.566;2023-02-28T05:38:55;102227.44;;;-0.83;76.66
76853;BME280;65825;52.232;10.566;2023-02-28T05:41:21;102229.41;;;-0.77;76.70
76853;BME280;65825;52.232;10.566;2023-02-28T05:43:47;102221.41;;;-0.83;77.38
76853;BME280;65825;52.232;10.566;2023-02-28T05:46:13;102230.09;;;-0.82;77.71
76853;BME280;65825;52.232;10.566;2023-02-28T05:48:40;102224.16;;;-0.79;77.13
76853;BME280;65825;52.232;10.566;2023-02-28T05:51:06;102228.22;;;-0.86;77.62
76853;BME280;65825;52.232;10.566;2023-02-28T05:53:33;102223.94;;;-0.85;77.43
76853;BME280;65825;52.232;10.566;2023-02-28T05:55:59;102237.88;;;-0.82;76.86
76853;BME280;65825;52.232;10.566;2023-02-28T05:58:26;102235.28;;;-0.82;77.08
76853;BME280;65825;52.232;10.566;2023-02-28T06:00:59;102230.78;;;-0.87;77.15
76853;BME280;65825;52.232;10.566;2023-02-28T06:03:24;102227.97;;;-0.92;77.14
76853;BME280;65825;52.232;10.566;2023-02-28T06:05:50;102233.84;;;-0.97;76.80
76853;BME280;65825;52.232;10.566;2023-02-28T06:08:15;102244.91;;;-1.01;77.35
76853;BME280;65825;52.232;10.566;2023-02-28T06:10:41;102244.28;;;-1.16;77.81
76853;BME280;65825;52.232;10.566;2023-02-28T06:13:06;102243.97;;;-1.23;78.09
76853;BME280;65825;52.232;10.566;2023-02-28T06:15:32;102249.28;;;-1.20;77.10
76853;BME280;65825;52.232;10.566;2023-02-28T06:17:58;102248.28;;;-1.24;77.11
76853;BME280;65825;52.232;10.566;2023-02-28T06:20:24;102249.22;;;-1.22;77.14
76853;BME280;65825;52.232;10.566;2023-02-28T06:22:50;102250.22;;;-1.18;77.28
76853;BME280;65825;52.232;10.566;2023-02-28T06:25:16;102252.88;;;-1.17;76.81
76853;BME280;65825;52.232;10.566;2023-02-28T06:27:42;102250.66;;;-1.08;76.92
76853;BME280;65825;52.232;10.566;2023-02-28T06:30:09;102258.53;;;-1.05;76.86
76853;BME280;65825;52.232;10.566;2023-02-28T06:32:34;102258.91;;;-0.96;77.08
76853;BME280;65825;52.232;10.566;2023-02-28T06:35:01;102251.59;;;-0.84;76.52
76853;BME280;65825;52.232;10.566;2023-02-28T06:37:26;102256.22;;;-0.77;76.47
76853;BME280;65825;52.232;10.566;2023-02-28T06:39:52;102263.47;;;-0.68;76.04
76853;BME280;65825;52.232;10.566;2023-02-28T06:42:17;102259.16;;;-0.68;76.04
76853;BME280;65825;52.232;10.566;2023-02-28T06:44:43;102268.81;;;-0.64;75.36
76853;BME280;65825;52.232;10.566;2023-02-28T06:47:08;102262.72;;;-0.66;74.94
76853;BME280;65825;52.232;10.566;2023-02-28T06:49:35;102268.72;;;-0.67;74.94
76853;BME280;65825;52.232;10.566;2023-02-28T06:52:01;102274.00;;;-0.64;75.09
76853;BME280;65825;52.232;10.566;2023-02-28T06:54:26;102279.88;;;-0.69;75.37
76853;BME280;65825;52.232;10.566;2023-02-28T06:56:52;102282.16;;;-0.55;74.73
76853;BME280;65825;52.232;10.566;2023-02-28T06:59:19;102276.97;;;-0.55;75.09
76853;BME280;65825;52.232;10.566;2023-02-28T07:01:44;102273.31;;;-0.60;74.59
76853;BME280;65825;52.232;10.566;2023-02-28T07:04:10;102275.44;;;-0.50;74.49
76853;BME280;65825;52.232;10.566;2023-02-28T07:06:35;102282.91;;;-0.57;74.49
76853;BME280;65825;52.232;10.566;2023-02-28T07:09:00;102275.75;;;-0.64;74.81
76853;BME280;65825;52.232;10.566;2023-02-28T07:11:27;102278.84;;;-0.73;75.34
76853;BME280;65825;52.232;10.566;2023-02-28T07:13:56;102287.63;;;-0.69;75.13
76853;BME280;65825;52.232;10.566;2023-02-28T07:16:23;102290.44;;;-0.86;76.00
76853;BME280;65825;52.232;10.566;2023-02-28T07:18:48;102293.91;;;-0.85;76.36
76853;BME280;65825;52.232;10.566;2023-02-28T07:21:14;102295.81;;;-0.81;76.48
76853;BME280;65825;52.232;10.566;2023-02-28T07:23:40;102297.81;;;-0.74;76.28
76853;BME280;65825;52.232;10.566;2023-02-28T07:26:13;102294.59;;;-0.68;76.14
76853;BME280;65825;52.232;10.566;2023-02-28T07:28:43;102292.53;;;-0.55;75.72
76853;BME280;65825;52.232;10.566;2023-02-28T07:31:10;102297.63;;;-0.35;75.17
76853;BME280;65825;52.232;10.566;2023-02-28T07:33:36;102297.66;;;-0.11;74.80
76853;BME280;65825;52.232;10.566;2023-02-28T07:36:08;102298.53;;;-0.11;74.89
76853;BME280;65825;52.232;10.566;2023-02-28T07:38:35;102292.59;;;-0.08;74.15
76853;BME280;65825;52.232;10.566;2023-02-28T07:41:00;102293.34;;;0.13;73.78
76853;BME280;65825;52.232;10.566;2023-02-28T07:43:25;102294.03;;;0.32;73.27
76853;BME280;65825;52.232;10.566;2023-02-28T07:45:51;102301.38;;;0.44;72.54
76853;BME280;65825;52.232;10.566;2023-02-28T07:48:16;102289.50;;;0.50;72.08
76853;BME280;65825;52.232;10.566;2023-02-28T07:50:41;102293.81;;;0.75;71.35
76853;BME280;65825;52.232;10.566;2023-02-28T07:53:06;102289.44;;;2.14;67.64
76853;BME280;65825;52.232;10.566;2023-02-28T07:55:32;102286.16;;;4.00;61.92
76853;BME280;65825;52.232;10.566;2023-02-28T07:57:57;102284.38;;;6.10;55.85
76853;BME280;65825;52.232;10.566;2023-02-28T08:00:23;102278.97;;;8.07;49.41
76853;BME280;65825;52.232;10.566;2023-02-28T08:02:49;102275.63;;;9.32;46.06
76853;BME280;65825;52.232;10.566;2023-02-28T08:05:14;102273.78;;;9.72;43.93
76853;BME280;65825;52.232;10.566;2023-02-28T08:07:39;102268.41;;;10.14;41.84
76853;BME280;65825;52.232;10.566;2023-02-28T08:10:05;102268.97;;;10.65;39.94
76853;BME280;65825;52.232;10.566;2023-02-28T08:12:31;102268.00;;;11.75;38.88
76853;BME280;65825;52.232;10.566;2023-02-28T08:14:56;102262.88;;;12.31;37.24
76853;BME280;65825;52.232;10.566;2023-02-28T08:17:21;102263.25;;;12.64;36.68
76853;BME280;65825;52.232;10.566;2023-02-28T08:19:46;102258.53;;;12.22;36.34
76853;BME280;65825;52.232;10.566;2023-02-28T08:22:12;102266.66;;;12.10;37.84
76853;BME280;65825;52.232;10.566;2023-02-28T08:24:38;102272.47;;;13.47;35.29
76853;BME280;65825;52.232;10.566;2023-02-28T08:27:03;102266.28;;;14.72;33.22
76853;BME280;65825;52.232;10.566;2023-02-28T08:29:28;102268.19;;;15.69;30.48
76853;BME280;65825;52.232;10.566;2023-02-28T08:31:55;102267.00;;;16.11;30.58
76853;BME280;65825;52.232;10.566;2023-02-28T08:34:20;102265.94;;;16.17;30.51
76853;BME280;65825;52.232;10.566;2023-02-28T08:36:46;102263.50;;;16.67;29.14
76853;BME280;65825;52.232;10.566;2023-02-28T08:39:12;102265.38;;;16.91;28.61
76853;BME280;65825;52.232;10.566;2023-02-28T08:41:37;102266.44;;;17.39;27.76
76853;BME280;65825;52.232;10.566;2023-02-28T08:44:05;102275.94;;;17.72;26.40
76853;BME280;65825;52.232;10.566;2023-02-28T08:46:30;102273.38;;;18.17;25.71
76853;BME280;65825;52.232;10.566;2023-02-28T08:48:56;102271.84;;;18.79;24.99
76853;BME280;65825;52.232;10.566;2023-02-28T08:51:25;102268.50;;;19.15;23.66
76853;BME280;65825;52.232;10.566;2023-02-28T08:53:55;102266.63;;;19.59;23.85
76853;BME280;65825;52.232;10.566;2023-02-28T08:56:22;102275.72;;;19.95;23.18
76853;BME280;65825;52.232;10.566;2023-02-28T08:58:48;102265.28;;;20.46;22.13
76853;BME280;65825;52.232;10.566;2023-02-28T09:01:20;102262.31;;;20.52;21.71
76853;BME280;65825;52.232;10.566;2023-02-28T09:03:47;102260.75;;;21.02;21.86
76853;BME280;65825;52.232;10.566;2023-02-28T09:06:14;102274.31;;;21.34;20.43
76853;BME280;65825;52.232;10.566;2023-02-28T09:08:40;102277.50;;;21.59;20.48
76853;BME280;65825;52.232;10.566;2023-02-28T09:11:06;102278.34;;;21.77;19.74
76853;BME280;65825;52.232;10.566;2023-02-28T09:13:32;102275.97;;;22.68;19.62
76853;BME280;65825;52.232;10.566;2023-02-28T09:15:59;102272.47;;;23.13;17.75
76853;BME280;65825;52.232;10.566;2023-02-28T09:18:25;102280.63;;;23.11;18.60
76853;BME280;65825;52.232;10.566;2023-02-28T09:20:51;102278.06;;;22.94;18.13
76853;BME280;65825;52.232;10.566;2023-02-28T09:23:16;102271.50;;;23.14;18.26
76853;BME280;65825;52.232;10.566;2023-02-28T09:25:50;102276.75;;;23.47;17.20
76853;BME280;65825;52.232;10.566;2023-02-28T09:28:16;102275.53;;;24.24;16.88
76853;BME280;65825;52.232;10.566;2023-02-28T09:30:44;102274.75;;;24.22;16.22
76853;BME280;65825;52.232;10.566;2023-02-28T09:33:09;102278.13;;;24.67;16.18
76853;BME280;65825;52.232;10.566;2023-02-28T09:35:35;102281.25;;;25.41;15.38
76853;BME280;65825;52.232;10.566;2023-02-28T09:38:02;102288.81;;;26.25;14.42
76853;BME280;65825;52.232;10.566;2023-02-28T09:40:27;102291.56;;;26.73;13.09
76853;BME280;65825;52.232;10.566;2023-02-28T09:42:55;102291.75;;;27.42;12.92
76853;BME280;65825;52.232;10.566;2023-02-28T09:45:30;102283.59;;;28.66;12.32
76853;BME280;65825;52.232;10.566;2023-02-28T09:48:00;102278.13;;;28.77;12.46
76853;BME280;65825;52.232;10.566;2023-02-28T09:50:33;102281.59;;;30.35;10.65
76853;BME280;65825;52.232;10.566;2023-02-28T09:53:05;102277.81;;;30.57;9.82
76853;BME280;65825;52.232;10.566;2023-02-28T09:55:39;102275.09;;;31.15;10.31
76853;BME280;65825;52.232;10.566;2023-02-28T09:58:16;102281.00;;;31.39;9.20
76853;BME280;65825;52.232;10.566;2023-02-28T10:00:46;102289.06;;;31.31;9.34
76853;BME280;65825;52.232;10.566;2023-02-28T10:03:32;102273.72;;;30.72;8.41
76853;BME280;65825;52.232;10.566;2023-02-28T10:08:55;102294.34;;;31.99;8.92
76853;BME280;65825;52.232;10.566;2023-02-28T10:11:23;102300.19;;;30.90;8.39
76853;BME280;65825;52.232;10.566;2023-02-28T10:16:23;102281.19;;;30.70;9.31
76853;BME280;65825;52.232;10.566;2023-02-28T10:19:04;102293.34;;;33.45;7.09
76853;BME280;65825;52.232;10.566;2023-02-28T10:21:41;102289.63;;;31.63;7.69
76853;BME280;65825;52.232;10.566;2023-02-28T10:26:37;102282.22;;;33.46;7.17
76853;BME280;65825;52.232;10.566;2023-02-28T10:29:02;102279.72;;;34.21;6.50
76853;BME280;65825;52.232;10.566;2023-02-28T10:31:28;102281.44;;;34.22;6.36
76853;BME280;65825;52.232;10.566;2023-02-28T10:33:53;102284.28;;;35.13;5.99
76853;BME280;65825;52.232;10.566;2023-02-28T10:36:20;102281.50;;;34.97;5.71
76853;BME280;65825;52.232;10.566;2023-02-28T10:38:47;102287.97;;;35.46;6.45
76853;BME280;65825;52.232;10.566;2023-02-28T10:41:26;102276.09;;;35.93;5.86
76853;BME280;65825;52.232;10.566;2023-02-28T10:43:53;102289.88;;;36.56;5.64
76853;BME280;65825;52.232;10.566;2023-02-28T10:46:39;102270.84;;;37.07;4.98
76853;BME280;65825;52.232;10.566;2023-02-28T10:49:11;102282.78;;;38.12;4.58
76853;BME280;65825;52.232;10.566;2023-02-28T10:51:39;102269.88;;;37.00;4.57
76853;BME280;65825;52.232;10.566;2023-02-28T10:54:14;102267.03;;;37.84;4.60
76853;BME280;65825;52.232;10.566;2023-02-28T10:56:40;102265.47;;;38.33;4.17
76853;BME280;65825;52.232;10.566;2023-02-28T11:01:45;102270.41;;;35.55;4.89
76853;BME280;65825;52.232;10.566;2023-02-28T11:06:46;102262.72;;;38.18;4.13
76853;BME280;65825;52.232;10.566;2023-02-28T11:09:23;102276.41;;;37.75;4.12
76853;BME280;65825;52.232;10.566;2023-02-28T11:11:50;102256.38;;;37.36;4.21
76853;BME280;65825;52.232;10.566;2023-02-28T11:14:21;102255.69;;;37.19;4.42
76853;BME280;65825;52.232;10.566;2023-02-28T11:16:48;102264.56;;;36.68;4.24
76853;BME280;65825;52.232;10.566;2023-02-28T11:19:22;102257.56;;;35.79;4.80
76853;BME280;65825;52.232;10.566;2023-02-28T11:21:54;102253.72;;;34.67;4.76
76853;BME280;65825;52.232;10.566;2023-02-28T11:24:27;102249.81;;;35.99;4.59
76853;BME280;65825;52.232;10.566;2023-02-28T11:26:54;102238.59;;;36.08;4.90
76853;BME280;65825;52.232;10.566;2023-02-28T11:29:23;102239.44;;;34.89;5.00
76853;BME280;65825;52.232;10.566;2023-02-28T11:32:21;102233.34;;;35.67;4.65
76853;BME280;65825;52.232;10.566;2023-02-28T11:35:01;102232.66;;;37.57;4.25
76853;BME280;65825;52.232;10.566;2023-02-28T11:37:27;102228.44;;;38.27;3.89
76853;BME280;65825;52.232;10.566;2023-02-28T11:39:53;102228.31;;;38.79;3.41
76853;BME280;65825;52.232;10.566;2023-02-28T11:42:46;102226.38;;;38.44;3.51
76853;BME280;65825;52.232;10.566;2023-02-28T11:45:36;102219.53;;;38.90;3.99
76853;BME280;65825;52.232;10.566;2023-02-28T11:48:18;102227.53;;;38.49;3.52
76853;BME280;65825;52.232;10.566;2023-02-28T11:50:49;102240.53;;;39.26;2.95
76853;BME280;65825;52.232;10.566;2023-02-28T11:53:44;102228.63;;;39.47;3.02
76853;BME280;65825;52.232;10.566;2023-02-28T11:56:16;102224.81;;;39.27;3.70
76853;BME280;65825;52.232;10.566;2023-02-28T11:58:53;102228.78;;;39.66;3.33
76853;BME280;65825;52.232;10.566;2023-02-28T12:01:38;102225.28;;;39.72;2.69
76853;BME280;65825;52.232;10.566;2023-02-28T12:04:25;102219.31;;;40.03;2.86
76853;BME280;65825;52.232;10.566;2023-02-28T12:07:06;102226.84;;;39.60;2.91
76853;BME280;65825;52.232;10.566;2023-02-28T12:10:01;102212.09;;;39.53;2.26
76853;BME280;65825;52.232;10.566;2023-02-28T12:15:26;102208.19;;;39.41;3.34
76853;BME280;65825;52.232;10.566;2023-02-28T12:23:50;102209.47;;;37.95;3.35
76853;BME280;65825;52.232;10.566;2023-02-28T12:26:36;102208.84;;;38.37;3.03
76853;BME280;65825;52.232;10.566;2023-02-28T12:31:52;102204.75;;;38.97;3.41
76853;BME280;65825;52.232;10.566;2023-02-28T12:34:23;102204.63;;;39.47;3.32
76853;BME280;65825;52.232;10.566;2023-02-28T12:36:51;102196.06;;;39.21;3.54
76853;BME280;65825;52.232;10.566;2023-02-28T12:39:24;102195.03;;;38.51;3.39
76853;BME280;65825;52.232;10.566;2023-02-28T12:41:54;102191.00;;;39.46;3.12
76853;BME280;65825;52.232;10.566;2023-02-28T12:44:49;102192.69;;;40.02;3.39
76853;BME280;65825;52.232;10.566;2023-02-28T12:47:17;102182.22;;;39.91;2.99
76853;BME280;65825;52.232;10.566;2023-02-28T12:49:49;102181.13;;;39.64;3.96
76853;BME280;65825;52.232;10.566;2023-02-28T12:52:30;102177.81;;;38.85;3.16
76853;BME280;65825;52.232;10.566;2023-02-28T12:55:04;102169.47;;;38.99;4.12
76853;BME280;65825;52.232;10.566;2023-02-28T12:57:41;102165.69;;;39.49;3.36
76853;BME280;65825;52.232;10.566;2023-02-28T13:00:18;102166.84;;;38.41;3.84
76853;BME280;65825;52.232;10.566;2023-02-28T13:05:54;102159.81;;;38.89;3.48
76853;BME280;65825;52.232;10.566;2023-02-28T13:08:48;102153.88;;;39.61;4.32
76853;BME280;65825;52.232;10.566;2023-02-28T13:11:31;102152.38;;;39.86;2.75
76853;BME280;65825;52.232;10.566;2023-02-28T13:14:02;102146.34;;;38.86;2.53
76853;BME280;65825;52.232;10.566;2023-02-28T13:16:55;102150.72;;;39.64;2.69
76853;BME280;65825;52.232;10.566;2023-02-28T13:19:24;102135.19;;;39.15;2.85
76853;BME280;65825;52.232;10.566;2023-02-28T13:21:51;102133.41;;;38.65;3.72
76853;BME280;65825;52.232;10.566;2023-02-28T13:24:48;102127.09;;;38.50;3.33
76853;BME280;65825;52.232;10.566;2023-02-28T13:29:41;102116.50;;;39.17;2.92
76853;BME280;65825;52.232;10.566;2023-02-28T13:39:46;102122.03;;;37.01;3.56
76853;BME280;65825;52.232;10.566;2023-02-28T13:47:36;102124.19;;;36.60;3.72
76853;BME280;65825;52.232;10.566;2023-02-28T13:55:29;102120.22;;;36.63;4.35
76853;BME280;65825;52.232;10.566;2023-02-28T13:58:16;102114.22;;;36.59;3.58
76853;BME280;65825;52.232;10.566;2023-02-28T14:01:22;102118.91;;;36.81;4.00
76853;BME280;65825;52.232;10.566;2023-02-28T14:04:21;102111.94;;;36.71;4.13
76853;BME280;65825;52.232;10.566;2023-02-28T14:06:53;102112.81;;;36.41;5.06
76853;BME280;65825;52.232;10.566;2023-02-28T14:09:27;102115.53;;;36.10;4.56
76853;BME280;65825;52.232;10.566;2023-02-28T14:11:54;102111.69;;;36.27;4.81